Avon, Indiana
Current Conditions -  °F | °C
As of 6:53 PM on Saturday 25 Oct 2014 (Local Time) from KEYE Reporting Station
Clear Clear  
Wind Chill: 20°   Ceiling: Unl
Heat Index: 20°   Visibility: 10mi
Dew Point:   Wind: 8mph
Humidity: 47%   Direction: 280°W
Pressure: 29.93"   Gusts: NA
Location:  39.76°N, 86.4°W
Report Text: KEYE 252253Z AUTO 28007KT 10SM CLR 20/08 A2993 RMK AO2 SLP131 T02000083 $
Loading
Personal Weather Stations






























Interactive Weather Map New forecast layout! Learn more

10-Day Weather Forecast

Advertisements
Track Severe Weather on mobile